Time;durP1;ratioP1;P1;durP2;ratioP2;P2;SDS_P1;SDS_P2;PMS_P1;PMS_P2;Temp;Humidity;BMP_temperature;BMP_pressure;BME280_temperature;BME280_humidity;BME280_pressure;Samples;Min_cycle;Max_cycle;Signal;HPM_P1;HPM_P2
2022/01/09 00:02:14;;;;;;;48.93;22.80;;;;;;;0.36;98.28;99810.31;10539059;28;20223;-66
2022/01/09 00:07:17;;;;;;;54.60;23.00;;;;;;;0.35;98.78;99807.72;10538697;28;20744;-61
2022/01/09 00:12:20;;;;;;;51.43;23.17;;;;;;;0.43;97.87;99799.38;10539939;28;20234;-61
2022/01/09 00:17:25;;;;;;;47.47;23.90;;;;;;;0.42;96.80;99789.16;10541906;28;20223;-63
2022/01/09 00:22:35;;;;;;;50.87;23.20;;;;;;;0.42;96.76;99786.59;10542358;28;20283;-63
2022/01/09 00:27:38;;;;;;;50.27;22.83;;;;;;;0.44;96.45;99785.81;10542105;28;20219;-62
2022/01/09 00:32:43;;;;;;;53.53;24.13;;;;;;;0.45;96.00;99779.88;10541792;28;20216;-65
2022/01/09 00:37:47;;;;;;;53.57;23.40;;;;;;;0.51;96.61;99774.03;10546430;28;20233;-63
2022/01/09 00:42:50;;;;;;;50.40;23.07;;;;;;;0.52;96.23;99770.66;10549872;28;20223;-61
2022/01/09 00:47:56;;;;;;;47.03;22.80;;;;;;;0.46;95.33;99773.06;10549811;28;20253;-66
2022/01/09 00:53:00;;;;;;;52.73;23.77;;;;;;;0.46;96.06;99767.97;10549790;28;20552;-63
2022/01/09 00:58:03;;;;;;;52.83;23.50;;;;;;;0.55;96.76;99760.50;10549327;28;20215;-61
2022/01/09 01:03:08;;;;;;;50.07;23.43;;;;;;;0.54;95.46;99757.09;10548611;28;20314;-64
2022/01/09 01:08:12;;;;;;;52.10;22.60;;;;;;;0.55;95.61;99750.28;10549143;28;20219;-63
2022/01/09 01:13:15;;;;;;;46.20;21.37;;;;;;;0.59;95.94;99746.94;10548856;28;20304;-65
2022/01/09 01:18:20;;;;;;;50.67;24.50;;;;;;;0.55;94.75;99734.97;10548400;28;20549;-62
2022/01/09 01:23:23;;;;;;;49.33;22.20;;;;;;;0.57;96.17;99725.66;10548146;28;20231;-67
2022/01/09 01:28:26;;;;;;;52.37;21.60;;;;;;;0.51;94.94;99721.28;10548429;28;20208;-65
2022/01/09 01:33:31;;;;;;;54.07;24.17;;;;;;;0.45;94.81;99713.50;10548678;28;20245;-69
2022/01/09 01:38:34;;;;;;;49.43;21.60;;;;;;;0.52;96.64;99710.25;10547750;28;20215;-66
2022/01/09 01:43:37;;;;;;;48.20;22.60;;;;;;;0.49;96.06;99709.31;10548124;28;20556;-68
2022/01/09 01:48:42;;;;;;;57.17;23.43;;;;;;;0.42;95.90;99710.91;10546897;28;20680;-66
2022/01/09 01:53:46;;;;;;;58.27;25.17;;;;;;;0.42;95.93;99710.03;10547150;28;20657;-61
2022/01/09 01:58:50;;;;;;;47.60;22.27;;;;;;;0.39;95.75;99702.31;10546811;28;20234;-64
2022/01/09 02:03:55;;;;;;;47.17;20.40;;;;;;;0.47;96.44;99699.09;10546717;28;20242;-63
2022/01/09 02:08:58;;;;;;;43.40;21.47;;;;;;;0.45;95.77;99698.19;10546507;28;20211;-64
2022/01/09 02:14:02;;;;;;;42.37;20.43;;;;;;;0.48;95.97;99693.16;10546340;28;20207;-68
2022/01/09 02:19:08;;;;;;;48.07;20.10;;;;;;;0.50;96.37;99688.09;10546017;28;20321;-64
2022/01/09 02:24:13;;;;;;;47.87;20.67;;;;;;;0.58;96.80;99684.84;10546084;28;20211;-64
2022/01/09 02:29:16;;;;;;;46.83;19.87;;;;;;;0.60;95.84;99678.09;10545832;28;20302;-62
2022/01/09 02:34:19;;;;;;;42.57;18.03;;;;;;;0.54;96.26;99664.31;10545551;28;20223;-65
2022/01/09 02:39:24;;;;;;;37.73;18.07;;;;;;;0.51;95.96;99656.63;10545160;28;20223;-62
2022/01/09 02:44:27;;;;;;;46.80;21.07;;;;;;;0.42;96.38;99651.34;10545097;28;20211;-63
2022/01/09 02:49:32;;;;;;;44.27;20.13;;;;;;;0.50;97.30;99647.25;10545077;28;20223;-63
2022/01/09 02:59:57;;;;;;;39.17;19.23;;;;;;;0.32;96.13;99647.78;10543773;28;20230;-65
2022/01/09 03:05:01;;;;;;;48.10;18.60;;;;;;;0.35;97.05;99636.75;10544281;28;20634;-64
2022/01/09 03:10:06;;;;;;;38.47;17.77;;;;;;;0.37;97.73;99628.28;10544356;28;20219;-66
2022/01/09 03:15:11;;;;;;;43.93;19.03;;;;;;;0.40;97.40;99628.34;10543764;28;20314;-65
2022/01/09 03:20:16;;;;;;;45.40;20.53;;;;;;;0.43;97.83;99627.56;10543804;28;20676;-65
2022/01/09 03:25:22;;;;;;;43.03;18.63;;;;;;;0.41;97.04;99624.13;10544099;28;20652;-64
2022/01/09 03:30:26;;;;;;;36.37;17.63;;;;;;;0.36;97.28;99616.38;10543368;28;20219;-61
2022/01/09 03:35:30;;;;;;;39.67;18.47;;;;;;;0.43;98.48;99622.44;10543857;28;20212;-66
2022/01/09 03:40:34;;;;;;;47.83;20.30;;;;;;;0.44;97.49;99619.94;10542975;28;20587;-64
2022/01/09 03:45:38;;;;;;;37.10;19.27;;;;;;;0.41;96.63;99629.22;10543048;28;20238;-64
2022/01/09 03:50:41;;;;;;;41.93;19.27;;;;;;;0.38;96.26;99624.91;10542732;28;20220;-61
2022/01/09 03:55:46;;;;;;;48.63;20.10;;;;;;;0.34;96.15;99622.28;10542741;28;20679;-65
2022/01/09 04:00:49;;;;;;;44.13;19.23;;;;;;;0.34;96.18;99622.28;10543043;28;20774;-64
2022/01/09 04:05:53;;;;;;;49.80;19.13;;;;;;;0.35;96.01;99624.84;10542310;28;20694;-64
2022/01/09 04:10:57;;;;;;;38.80;19.70;;;;;;;0.38;96.76;99621.50;10548317;28;20306;-68
2022/01/09 04:16:00;;;;;;;38.23;17.93;;;;;;;0.31;97.09;99617.97;10556235;28;20215;-67
2022/01/09 04:21:04;;;;;;;41.47;19.00;;;;;;;0.26;98.00;99619.56;10555978;28;20305;-63
2022/01/09 04:26:08;;;;;;;40.33;19.10;;;;;;;0.18;98.15;99621.13;10556242;28;20211;-65
2022/01/09 04:31:11;;;;;;;39.63;19.73;;;;;;;-0.03;99.51;99623.25;10556338;28;20227;-66
2022/01/09 04:36:15;;;;;;;41.50;19.53;;;;;;;-0.15;100.00;99620.47;10555706;28;20219;-66
2022/01/09 04:41:19;;;;;;;39.90;19.83;;;;;;;-0.22;100.00;99619.47;10555792;28;20237;-63
2022/01/09 04:46:28;;;;;;;42.53;19.93;;;;;;;-0.31;100.00;99623.53;10555786;28;20215;-70
2022/01/09 04:51:32;;;;;;;45.23;22.33;;;;;;;-0.30;100.00;99613.38;10555260;28;20251;-62
2022/01/09 04:56:36;;;;;;;42.27;19.63;;;;;;;-0.33;100.00;99615.84;10554379;28;20294;-64
2022/01/09 05:01:40;;;;;;;42.53;19.23;;;;;;;-0.27;100.00;99604.91;10552149;28;20664;-62
2022/01/09 05:06:43;;;;;;;45.93;20.63;;;;;;;-0.21;100.00;99608.44;10552394;28;20730;-63
2022/01/09 05:11:47;;;;;;;42.30;19.43;;;;;;;-0.21;99.97;99608.44;10551996;28;20629;-61
2022/01/09 05:16:50;;;;;;;42.40;18.50;;;;;;;-0.18;100.00;99605.13;10551834;28;20187;-61
2022/01/09 05:21:54;;;;;;;41.57;18.77;;;;;;;-0.21;100.00;99603.34;10188718;28;9999979;-64
2022/01/09 05:26:58;;;;;;;48.23;19.43;;;;;;;-0.11;100.00;99602.72;10503150;28;20191;-65
2022/01/09 05:32:02;;;;;;;48.50;19.80;;;;;;;-0.10;100.00;99599.34;10502817;28;20549;-64
2022/01/09 05:37:05;;;;;;;43.40;19.70;;;;;;;-0.08;100.00;99597.69;10502938;28;20210;-64
2022/01/09 05:42:12;;;;;;;47.40;19.67;;;;;;;-0.03;100.00;99600.31;10502464;28;20309;-69
2022/01/09 05:47:15;;;;;;;43.00;19.67;;;;;;;-0.03;100.00;99598.63;10502579;28;20200;-64
2022/01/09 05:52:19;;;;;;;42.13;19.47;;;;;;;-0.10;100.00;99590.81;10502276;28;20206;-62
2022/01/09 05:57:23;;;;;;;38.70;19.30;;;;;;;-0.18;100.00;99585.59;10501960;28;20200;-64
2022/01/09 06:02:27;;;;;;;45.63;19.70;;;;;;;-0.22;100.00;99581.25;10501836;28;20219;-63
2022/01/09 06:07:30;;;;;;;46.23;19.10;;;;;;;-0.20;100.00;99583.81;10499277;28;20625;-63
2022/01/09 06:12:35;;;;;;;43.10;18.93;;;;;;;-0.31;100.00;99586.16;10479141;28;20211;-63
2022/01/09 06:17:39;;;;;;;45.07;18.20;;;;;;;-0.30;100.00;99590.44;10460257;28;20209;-64
2022/01/09 06:22:43;;;;;;;40.40;18.77;;;;;;;-0.36;100.00;99592.84;10493660;28;20253;-64
2022/01/09 06:27:48;;;;;;;43.37;19.17;;;;;;;-0.46;100.00;99593.50;10546185;28;20271;-65
2022/01/09 06:32:51;;;;;;;44.87;20.20;;;;;;;-0.51;100.00;99578.94;10544745;28;20258;-65
2022/01/09 06:37:54;;;;;;;39.77;19.43;;;;;;;-0.57;100.00;99579.66;10545347;28;20215;-63
2022/01/09 06:42:59;;;;;;;52.20;19.80;;;;;;;-0.56;100.00;99585.63;10545027;28;20223;-61
2022/01/09 06:48:03;;;;;;;46.03;20.33;;;;;;;-0.58;100.00;99592.34;10544925;28;20219;-63
2022/01/09 06:53:07;;;;;;;49.00;20.87;;;;;;;-0.63;100.00;99592.28;10544666;28;20223;-66
2022/01/09 06:58:11;;;;;;;41.67;19.53;;;;;;;-0.66;100.00;99592.22;10544688;28;20220;-67
2022/01/09 07:03:15;;;;;;;47.47;20.87;;;;;;;-0.76;100.00;99597.91;10544175;28;20556;-67
2022/01/09 07:08:18;;;;;;;49.23;20.70;;;;;;;-0.76;100.00;99591.97;10544235;28;20534;-64
2022/01/09 07:13:23;;;;;;;42.60;20.37;;;;;;;-0.82;100.00;99602.00;10543925;28;20226;-66
2022/01/09 07:18:26;;;;;;;51.33;20.67;;;;;;;-0.78;100.00;99604.69;10543775;28;20219;-65
2022/01/09 07:23:29;;;;;;;43.57;19.13;;;;;;;-0.79;100.00;99602.94;10543769;28;20223;-67
2022/01/09 07:28:34;;;;;;;49.03;20.33;;;;;;;-0.80;100.00;99603.78;10543346;28;20233;-67
2022/01/09 07:33:37;;;;;;;43.27;21.20;;;;;;;-0.77;100.00;99606.38;10543119;28;20661;-70
2022/01/09 07:38:40;;;;;;;43.43;19.70;;;;;;;-0.64;100.00;99598.19;10542970;28;20215;-65
2022/01/09 07:43:45;;;;;;;48.10;21.07;;;;;;;-0.76;100.00;99603.00;10542970;28;20219;-66
2022/01/09 07:48:49;;;;;;;45.97;19.03;;;;;;;-0.81;100.00;99606.31;10542609;28;20592;-63
2022/01/09 07:53:52;;;;;;;51.87;21.93;;;;;;;-0.70;100.00;99618.44;10542485;28;20272;-64
2022/01/09 07:58:58;;;;;;;46.40;20.70;;;;;;;-0.74;100.00;99611.53;10542481;28;20226;-67
2022/01/09 08:04:01;;;;;;;43.80;20.23;;;;;;;-0.72;100.00;99604.81;10542262;28;20224;-67
2022/01/09 08:09:05;;;;;;;40.03;20.43;;;;;;;-0.66;100.00;99597.31;10542124;28;20736;-65
2022/01/09 08:14:10;;;;;;;44.27;21.00;;;;;;;-0.65;100.00;99601.56;10542211;28;20222;-66
2022/01/09 08:19:13;;;;;;;42.70;21.43;;;;;;;-0.66;100.00;99621.91;10542003;28;20223;-66
2022/01/09 08:24:16;;;;;;;48.70;20.30;;;;;;;-0.62;100.00;99605.88;10541740;28;20225;-64
2022/01/09 08:29:21;;;;;;;45.50;20.50;;;;;;;-0.47;100.00;99616.41;10542045;28;20302;-66
2022/01/09 08:34:24;;;;;;;44.50;20.17;;;;;;;-0.36;99.65;99614.91;10541666;28;20215;-65
2022/01/09 08:39:27;;;;;;;41.97;21.43;;;;;;;-0.31;98.98;99618.44;10541833;28;20660;-63
2022/01/09 08:44:32;;;;;;;48.07;21.60;;;;;;;-0.28;98.86;99616.81;10541336;28;20230;-66
2022/01/09 08:49:35;;;;;;;46.17;21.80;;;;;;;-0.19;98.64;99617.00;10541547;28;20612;-65
2022/01/09 08:54:38;;;;;;;43.07;21.00;;;;;;;0.07;98.83;99616.66;10541322;28;20215;-63
2022/01/09 08:59:43;;;;;;;41.37;20.93;;;;;;;0.29;97.27;99606.91;10547371;28;20298;-65
2022/01/09 09:04:46;;;;;;;40.70;20.80;;;;;;;0.79;95.39;99608.63;10547873;28;20875;-64
2022/01/09 09:09:53;;;;;;;40.30;19.83;;;;;;;1.15;92.68;99608.34;10545672;28;20230;-67
2022/01/09 09:14:58;;;;;;;43.20;20.27;;;;;;;1.46;91.87;99610.50;10545809;28;20215;-67
2022/01/09 09:20:01;;;;;;;46.27;21.90;;;;;;;1.48;90.05;99598.59;10545379;28;20669;-66
2022/01/09 09:25:06;;;;;;;40.53;20.23;;;;;;;1.55;89.45;99597.84;10545263;28;20302;-65
2022/01/09 09:30:14;;;;;;;40.40;19.93;;;;;;;1.42;90.86;99606.19;10545848;28;20229;-65
2022/01/09 09:35:17;;;;;;;40.37;20.63;;;;;;;1.30;90.99;99600.88;10544716;28;20310;-67
2022/01/09 09:40:20;;;;;;;41.10;21.40;;;;;;;1.38;92.49;99606.97;10544641;28;20212;-63
2022/01/09 09:45:25;;;;;;;37.63;19.93;;;;;;;1.53;92.66;99604.63;10544316;28;20755;-62
2022/01/09 09:50:28;;;;;;;42.90;21.07;;;;;;;1.58;92.17;99605.56;10543867;28;20298;-66
2022/01/09 09:55:32;;;;;;;42.37;22.00;;;;;;;1.73;93.21;99603.19;10544038;28;20266;-64
2022/01/09 10:00:37;;;;;;;39.43;20.77;;;;;;;1.83;91.05;99599.91;10543365;28;20207;-64
2022/01/09 10:05:40;;;;;;;36.70;21.17;;;;;;;2.04;91.74;99605.28;10176972;28;10000500;-65
2022/01/09 10:10:44;;;;;;;36.03;20.23;;;;;;;2.24;91.39;99600.38;10501176;28;20731;-62
2022/01/09 10:15:51;;;;;;;39.97;19.23;;;;;;;2.45;89.66;99595.47;10501069;28;20698;-66
2022/01/09 10:21:05;;;;;;;36.93;19.30;;;;;;;2.71;88.55;99588.88;10500811;28;20226;-67
2022/01/09 10:26:12;;;;;;;43.23;20.40;;;;;;;2.95;86.99;99583.97;10500840;28;20226;-64
2022/01/09 10:31:19;;;;;;;35.20;18.30;;;;;;;3.39;85.01;99584.28;10500442;28;20674;-69
2022/01/09 10:36:33;;;;;;;33.47;18.47;;;;;;;3.80;81.49;99577.63;10500488;28;20224;-66
2022/01/09 10:41:51;;;;;;;35.87;18.57;;;;;;;4.34;79.67;99564.97;10500001;28;20212;-68
2022/01/09 10:47:01;;;;;;;37.53;19.13;;;;;;;4.97;75.98;99550.44;10499727;28;20315;-63
2022/01/09 10:52:18;;;;;;;29.83;17.30;;;;;;;5.60;72.63;99555.47;10499857;28;20226;-67
2022/01/09 10:57:25;;;;;;;33.50;17.77;;;;;;;6.12;70.74;99550.97;10498856;28;20681;-65
2022/01/09 11:02:29;;;;;;;30.47;16.90;;;;;;;6.35;69.09;99547.38;10499013;28;20226;-66
2022/01/09 11:07:33;;;;;;;32.63;17.17;;;;;;;6.82;68.02;99535.00;10530528;28;20568;-65
2022/01/09 11:12:46;;;;;;;35.23;17.63;;;;;;;6.89;66.46;99525.50;10540657;28;20699;-66
2022/01/09 11:17:51;;;;;;;31.93;16.57;;;;;;;6.88;66.83;99524.66;10540619;28;20615;-67
2022/01/09 11:22:59;;;;;;;28.97;15.70;;;;;;;7.74;63.24;99515.13;10539703;28;20223;-65
2022/01/09 11:28:14;;;;;;;27.37;15.03;;;;;;;7.92;62.96;99513.16;10540211;28;20212;-63
2022/01/09 11:33:47;;;;;;;25.13;13.97;;;;;;;8.09;60.07;99506.03;10540204;28;20863;-67
2022/01/09 11:38:59;;;;;;;24.37;14.10;;;;;;;8.45;60.79;99496.94;10539791;28;20243;-68
2022/01/09 11:44:04;;;;;;;23.73;12.90;;;;;;;8.55;59.57;99497.63;10539653;28;20264;-65
2022/01/09 11:49:09;;;;;;;24.27;13.33;;;;;;;8.63;58.95;99498.38;10539606;28;20215;-66
2022/01/09 11:54:16;;;;;;;28.13;12.67;;;;;;;8.78;58.20;99498.97;10539253;28;20318;-67
2022/01/09 11:59:25;;;;;;;21.97;12.57;;;;;;;8.98;56.83;99490.84;10539482;28;20719;-63
2022/01/09 12:05:06;;;;;;;23.67;12.87;;;;;;;9.00;57.74;99489.09;10533245;28;20729;-65
2022/01/09 12:10:32;;;;;;;21.30;11.97;;;;;;;9.17;55.43;99485.34;10499743;28;20220;-64
2022/01/09 12:15:40;;;;;;;23.60;12.43;;;;;;;9.05;57.54;99485.56;10500358;28;20227;-63
2022/01/09 12:20:44;;;;;;;21.13;11.77;;;;;;;8.98;57.47;99494.31;10500382;28;20299;-64
2022/01/09 12:25:57;;;;;;;23.40;12.03;;;;;;;8.22;58.06;99496.38;10498550;28;20552;-65
2022/01/09 12:31:01;;;;;;;23.33;12.17;;;;;;;8.05;60.13;99488.00;10498842;28;20226;-61
2022/01/09 12:36:07;;;;;;;22.53;11.63;;;;;;;8.10;58.63;99501.72;10505100;28;20228;-65
2022/01/09 12:41:15;;;;;;;17.60;10.33;;;;;;;7.72;59.98;99509.13;10505143;28;20220;-63
2022/01/09 12:46:21;;;;;;;18.57;10.70;;;;;;;7.12;60.90;99515.81;10504635;28;20743;-67
2022/01/09 12:51:26;;;;;;;21.70;11.50;;;;;;;6.63;62.42;99517.97;10504322;28;20303;-65
2022/01/09 12:56:32;;;;;;;20.83;11.33;;;;;;;5.97;62.75;99515.84;10504770;28;20219;-63
2022/01/09 13:01:42;;;;;;;20.57;10.20;;;;;;;5.62;64.31;99528.88;10504088;28;20222;-63
2022/01/09 13:06:49;;;;;;;21.37;9.60;;;;;;;5.10;65.40;99529.84;10528527;28;20231;-63
2022/01/09 13:11:55;;;;;;;19.43;10.20;;;;;;;4.79;67.94;99537.59;10545742;28;20231;-63
2022/01/09 13:17:16;;;;;;;22.90;11.87;;;;;;;4.52;67.64;99536.72;10545328;28;20215;-65
2022/01/09 13:22:35;;;;;;;21.50;10.23;;;;;;;4.35;69.58;99545.25;10545392;28;20219;-65
2022/01/09 13:27:41;;;;;;;21.23;10.37;;;;;;;4.10;70.80;99549.50;10544953;28;20793;-65
2022/01/09 13:32:44;;;;;;;20.50;10.40;;;;;;;4.00;72.04;99552.91;10544750;28;20229;-63
2022/01/09 13:37:56;;;;;;;23.97;9.77;;;;;;;3.84;72.55;99557.97;10545194;28;20548;-63
2022/01/09 13:43:02;;;;;;;22.87;10.40;;;;;;;3.74;73.54;99567.34;10544016;28;20245;-65
2022/01/09 13:48:05;;;;;;;48.00;26.13;;;;;;;3.72;73.00;99565.63;10518661;28;20212;-67
2022/01/09 13:53:29;;;;;;;21.67;10.10;;;;;;;3.62;73.28;99562.19;10502077;28;20216;-65
2022/01/09 13:58:33;;;;;;;21.50;10.80;;;;;;;3.55;74.62;99576.66;10501823;28;20223;-64
2022/01/09 14:03:36;;;;;;;24.10;12.13;;;;;;;3.37;75.40;99575.69;10501629;28;20254;-68
2022/01/09 14:08:40;;;;;;;30.93;14.60;;;;;;;3.29;77.07;99582.50;10542179;28;20687;-67
2022/01/09 14:13:44;;;;;;;28.27;14.10;;;;;;;3.17;77.10;99580.72;10543304;28;20247;-61
2022/01/09 14:18:56;;;;;;;30.80;15.27;;;;;;;3.04;78.30;99580.59;10543248;28;20222;-62
2022/01/09 14:24:06;;;;;;;28.37;15.23;;;;;;;2.84;79.46;99584.72;10522753;28;20311;-66
2022/01/09 14:29:19;;;;;;;32.50;16.57;;;;;;;2.66;80.95;99589.72;10503409;28;20240;-67
2022/01/09 14:34:22;;;;;;;36.53;16.23;;;;;;;2.47;81.61;99598.06;10503287;28;20311;-66
2022/01/09 14:39:27;;;;;;;30.37;16.77;;;;;;;2.34;82.95;99608.19;10502899;28;20216;-65
2022/01/09 14:44:32;;;;;;;39.20;19.37;;;;;;;2.24;83.64;99611.47;10501684;28;20307;-65
2022/01/09 14:49:35;;;;;;;29.07;16.07;;;;;;;2.17;84.72;99617.34;10499551;28;20685;-64
2022/01/09 14:54:40;;;;;;;33.47;16.73;;;;;;;2.00;85.90;99618.88;10498330;28;20576;-67
2022/01/09 14:59:46;;;;;;;35.53;17.80;;;;;;;1.95;86.24;99629.91;10499219;28;20220;-63
2022/01/09 15:04:49;;;;;;;32.93;18.50;;;;;;;1.96;85.84;99629.94;10507509;28;20235;-63
2022/01/09 15:09:53;;;;;;;33.90;17.93;;;;;;;1.76;86.54;99645.88;10540781;28;20681;-67
2022/01/09 15:14:58;;;;;;;41.13;20.80;;;;;;;1.59;87.80;99653.28;10540692;28;20738;-62
2022/01/09 15:20:03;;;;;;;36.27;19.17;;;;;;;1.37;90.27;99663.19;10541055;28;20231;-65
2022/01/09 15:25:07;;;;;;;37.13;18.70;;;;;;;1.36;89.48;99670.00;10540843;28;20231;-69
2022/01/09 15:30:12;;;;;;;36.60;19.40;;;;;;;1.41;88.82;99670.94;10540224;28;20225;-65
2022/01/09 15:35:15;;;;;;;39.73;20.27;;;;;;;1.33;88.89;99675.03;10540386;28;20215;-65
2022/01/09 15:40:19;;;;;;;37.97;20.40;;;;;;;1.17;88.87;99689.28;10539305;28;20564;-64
2022/01/09 15:45:24;;;;;;;41.37;22.53;;;;;;;1.05;89.04;99709.50;10538665;28;20219;-65
2022/01/09 15:50:27;;;;;;;65.40;30.03;;;;;;;0.94;91.29;99715.28;10539885;28;20182;-63
2022/01/09 15:55:30;;;;;;;44.70;20.43;;;;;;;0.88;91.94;99715.19;10539396;28;20195;-65
2022/01/09 16:00:38;;;;;;;39.33;19.43;;;;;;;0.75;91.36;99709.00;10539462;28;20587;-66
2022/01/09 16:05:41;;;;;;;47.30;22.20;;;;;;;0.76;91.46;99712.41;10538941;28;20237;-67
2022/01/09 16:10:46;;;;;;;41.83;20.47;;;;;;;0.78;90.36;99715.81;10531566;28;20224;-62
2022/01/09 16:15:51;;;;;;;45.50;21.47;;;;;;;0.61;89.77;99723.19;10497203;28;20222;-62
2022/01/09 16:20:54;;;;;;;43.87;21.10;;;;;;;0.68;90.86;99717.38;10497305;28;20598;-59
2022/01/09 16:25:59;;;;;;;42.03;20.37;;;;;;;0.66;89.20;99724.13;10496792;28;20216;-60
2022/01/09 16:31:04;;;;;;;43.60;21.00;;;;;;;0.60;89.33;99724.03;10496842;28;20249;-61
2022/01/09 16:36:10;;;;;;;48.50;21.80;;;;;;;0.47;90.52;99727.16;10497076;28;20196;-63
2022/01/09 16:41:17;;;;;;;43.10;20.30;;;;;;;0.46;91.02;99724.59;10496733;28;20288;-61
2022/01/09 16:46:22;;;;;;;44.10;21.60;;;;;;;0.50;90.30;99728.94;10496467;28;20216;-63
2022/01/09 16:51:25;;;;;;;49.70;21.60;;;;;;;0.50;89.47;99731.47;10496668;28;20306;-64
2022/01/09 16:56:29;;;;;;;43.90;22.60;;;;;;;0.51;89.64;99738.28;10496515;28;20220;-63
2022/01/09 17:01:37;;;;;;;43.77;21.57;;;;;;;0.41;90.81;99741.50;10496096;28;20247;-62
2022/01/09 17:06:41;;;;;;;43.53;21.67;;;;;;;0.32;91.47;99744.72;10520039;28;20673;-64
2022/01/09 17:11:44;;;;;;;49.30;22.60;;;;;;;0.35;92.30;99752.44;10537882;28;20789;-69
2022/01/09 17:16:49;;;;;;;46.57;22.63;;;;;;;0.32;92.67;99754.06;10537978;28;20661;-63
2022/01/09 17:22:05;;;;;;;44.90;22.20;;;;;;;0.18;93.46;99763.13;10545115;28;20227;-63
2022/01/09 17:27:08;;;;;;;46.33;22.80;;;;;;;0.13;93.38;99763.03;10544836;28;20231;-62
2022/01/09 17:32:13;;;;;;;44.73;21.43;;;;;;;0.19;94.65;99757.19;10545157;28;20740;-66
2022/01/09 17:37:17;;;;;;;51.00;23.07;;;;;;;0.11;94.33;99769.78;10544584;28;20223;-66
2022/01/09 17:42:22;;;;;;;44.53;21.00;;;;;;;0.09;95.25;99773.16;10544305;28;20217;-63
2022/01/09 17:47:27;;;;;;;42.20;22.10;;;;;;;-0.01;96.42;99792.47;10544246;28;20287;-63
2022/01/09 17:52:31;;;;;;;46.27;22.97;;;;;;;-0.08;96.08;99799.13;10544070;28;20610;-64
2022/01/09 17:57:34;;;;;;;46.97;23.50;;;;;;;-0.11;96.37;99804.16;10544091;28;20221;-64
2022/01/09 18:02:39;;;;;;;53.40;23.83;;;;;;;-0.16;97.10;99815.06;10543336;28;20253;-62
2022/01/09 18:07:43;;;;;;;48.93;24.37;;;;;;;-0.19;97.67;99810.75;10510500;28;20303;-65
2022/01/09 18:12:46;;;;;;;49.93;24.60;;;;;;;-0.24;97.73;99825.06;10501663;28;20228;-64
2022/01/09 18:17:51;;;;;;;50.27;23.90;;;;;;;-0.22;98.19;99825.97;10501082;28;20307;-66
2022/01/09 18:22:54;;;;;;;57.87;26.03;;;;;;;-0.28;99.07;99832.63;10500827;28;20240;-62
2022/01/09 18:27:57;;;;;;;54.13;27.47;;;;;;;-0.31;99.28;99848.69;10500523;28;20369;-64
2022/01/09 18:33:03;;;;;;;59.50;26.80;;;;;;;-0.34;99.99;99856.28;10500438;28;20224;-64
2022/01/09 18:38:07;;;;;;;56.67;26.97;;;;;;;-0.42;100.00;99875.63;10500517;28;20230;-65
2022/01/09 18:43:10;;;;;;;60.03;25.90;;;;;;;-0.54;100.00;99870.22;10500191;28;20303;-63
2022/01/09 18:48:15;;;;;;;54.73;26.23;;;;;;;-0.49;100.00;99873.75;10499758;28;20620;-64
2022/01/09 18:53:18;;;;;;;56.53;26.27;;;;;;;-0.47;100.00;99877.19;10499887;28;20283;-64
2022/01/09 18:58:22;;;;;;;49.43;24.87;;;;;;;-0.54;100.00;99882.09;10501552;28;20220;-63
2022/01/09 19:03:27;;;;;;;58.07;26.50;;;;;;;-0.53;100.00;99886.34;10502500;28;20236;-63
2022/01/09 19:08:30;;;;;;;64.70;28.07;;;;;;;-0.65;100.00;99892.00;10502155;28;20228;-64
2022/01/09 19:13:34;;;;;;;60.97;27.63;;;;;;;-0.60;100.00;99902.28;10502305;28;20303;-66
2022/01/09 19:18:40;;;;;;;60.07;27.17;;;;;;;-0.67;100.00;99897.84;10500739;28;20306;-65
2022/01/09 19:23:43;;;;;;;60.37;27.63;;;;;;;-0.69;100.00;99899.53;10498723;28;20216;-64
2022/01/09 19:28:46;;;;;;;59.00;28.23;;;;;;;-0.78;100.00;99904.34;10170278;27;10000191;-62
2022/01/09 19:33:51;;;;;;;58.20;27.67;;;;;;;-0.86;100.00;99906.69;10540140;28;20557;-61
2022/01/09 19:38:54;;;;;;;59.80;28.20;;;;;;;-0.81;100.00;99904.28;10540084;28;20211;-62
2022/01/09 19:43:57;;;;;;;55.27;26.40;;;;;;;-0.87;100.00;99914.28;10539136;28;20223;-65
2022/01/09 19:49:02;;;;;;;52.93;25.17;;;;;;;-0.86;100.00;99916.88;10539570;28;20311;-64
2022/01/09 19:54:07;;;;;;;64.70;30.00;;;;;;;-0.87;100.00;99921.94;10539765;28;20708;-61
2022/01/09 19:59:10;;;;;;;62.47;28.97;;;;;;;-0.86;100.00;99937.25;10539308;28;20219;-63
2022/01/09 20:04:15;;;;;;;55.23;26.07;;;;;;;-0.82;100.00;99939.06;10539390;28;20264;-64
2022/01/09 20:09:19;;;;;;;54.07;26.63;;;;;;;-0.93;100.00;99947.22;10539082;28;20665;-65
2022/01/09 20:14:25;;;;;;;56.33;25.27;;;;;;;-1.05;100.00;99955.38;10538949;28;20223;-63
2022/01/09 20:19:29;;;;;;;51.57;25.33;;;;;;;-1.12;100.00;99970.44;10539729;28;20310;-63
2022/01/09 20:24:34;;;;;;;54.03;26.17;;;;;;;-1.01;100.00;99957.19;10538714;28;20225;-62
2022/01/09 20:29:39;;;;;;;51.63;25.23;;;;;;;-1.03;100.00;99968.13;10507520;28;20566;-61
2022/01/09 20:34:44;;;;;;;53.37;25.13;;;;;;;-1.06;100.00;99983.31;10496981;28;20281;-59
2022/01/09 20:39:48;;;;;;;50.13;24.13;;;;;;;-1.11;100.00;99975.56;10496586;28;20244;-63
2022/01/09 20:44:51;;;;;;;56.50;24.73;;;;;;;-1.11;100.00;99989.97;10496821;28;20220;-63
2022/01/09 20:49:56;;;;;;;44.37;22.87;;;;;;;-1.17;100.00;99994.06;10496388;28;20623;-64
2022/01/09 20:55:00;;;;;;;50.63;23.30;;;;;;;-1.16;100.00;100002.56;10501136;28;20737;-67
2022/01/09 21:00:05;;;;;;;47.13;21.93;;;;;;;-1.24;100.00;100009.97;10504325;28;20216;-61
2022/01/09 21:05:11;;;;;;;47.10;21.77;;;;;;;-1.24;100.00;100012.50;10503745;28;20243;-63
2022/01/09 21:10:15;;;;;;;43.60;21.60;;;;;;;-1.29;100.00;100021.69;10503826;28;20216;-65
2022/01/09 21:15:20;;;;;;;48.13;21.93;;;;;;;-1.13;100.00;100017.94;10503636;28;20267;-61
2022/01/09 21:20:25;;;;;;;47.17;20.73;;;;;;;-1.15;100.00;100029.75;10503450;28;20198;-61
2022/01/09 21:25:30;;;;;;;42.47;21.77;;;;;;;-1.26;100.00;100026.84;10503836;28;20240;-55
2022/01/09 21:30:33;;;;;;;44.60;20.53;;;;;;;-1.41;100.00;100025.50;10541455;28;20275;-59
2022/01/09 21:35:38;;;;;;;65.97;28.00;;;;;;;-1.51;100.00;100038.75;10544699;28;20196;-64
2022/01/09 21:40:41;;;;;;;41.00;19.70;;;;;;;-1.39;100.00;100034.94;10544895;28;20191;-64
2022/01/09 21:45:46;;;;;;;46.50;21.63;;;;;;;-1.53;100.00;100040.38;10544382;28;20207;-63
2022/01/09 21:50:52;;;;;;;52.90;23.70;;;;;;;-1.46;100.00;100052.50;10544278;28;20264;-64
2022/01/09 21:55:55;;;;;;;49.43;22.83;;;;;;;-1.55;100.00;100053.06;10544441;28;20184;-63
2022/01/09 22:00:59;;;;;;;45.40;20.77;;;;;;;-1.46;100.00;100055.91;10543836;28;20227;-63
2022/01/09 22:06:04;;;;;;;46.73;21.23;;;;;;;-1.44;100.00;100066.13;10543005;28;20231;-62
2022/01/09 22:11:08;;;;;;;45.83;22.27;;;;;;;-1.49;100.00;100075.31;10543591;28;20270;-64
2022/01/09 22:16:12;;;;;;;50.07;22.60;;;;;;;-1.46;100.00;100080.47;10543209;28;20214;-65
2022/01/09 22:21:16;;;;;;;42.63;21.80;;;;;;;-1.59;100.00;100091.09;10543407;28;20187;-65
2022/01/09 22:26:20;;;;;;;46.43;20.90;;;;;;;-1.52;100.00;100090.47;10539544;28;20224;-64
2022/01/09 22:31:24;;;;;;;42.60;19.43;;;;;;;-1.52;100.00;100096.41;10502398;28;20196;-65
2022/01/09 22:36:28;;;;;;;40.20;18.47;;;;;;;-1.68;100.00;100106.03;10503916;28;20311;-64
2022/01/09 22:41:33;;;;;;;42.00;19.70;;;;;;;-1.73;100.00;100112.63;10503266;28;20250;-64
2022/01/09 22:46:36;;;;;;;42.23;19.87;;;;;;;-1.80;100.00;100111.56;10503330;28;20231;-64
2022/01/09 22:51:41;;;;;;;41.57;19.53;;;;;;;-1.80;100.00;100110.69;10502893;28;20216;-66
2022/01/09 22:56:45;;;;;;;43.43;20.80;;;;;;;-1.93;100.00;100119.56;10502965;28;20220;-64
2022/01/09 23:01:52;;;;;;;52.33;21.37;;;;;;;-1.97;100.00;100117.75;10500539;28;20249;-65
2022/01/09 23:06:57;;;;;;;53.07;22.07;;;;;;;-1.98;100.00;100131.25;10499237;28;20259;-64
2022/01/09 23:12:02;;;;;;;52.63;22.93;;;;;;;-1.97;100.00;100143.16;10499466;28;20255;-66